Time;durP1;ratioP1;P1;durP2;ratioP2;P2;SDS_P1;SDS_P2;PMS_P1;PMS_P2;Temp;Humidity;BMP_temperature;BMP_pressure;BME280_temperature;BME280_humidity;BME280_pressure;Samples;Min_cycle;Max_cycle;Signal;HPM_P1;HPM_P2
2023/06/26 00:02:13;;;;;;;;;;;;;;;26.09;57.24;100947.86;2293112;77;49829;-76
2023/06/26 00:05:14;;;;;;;;;;;;;;;26.08;57.39;100943.51;2315300;76;50658;-76
2023/06/26 00:08:16;;;;;;;;;;;;;;;26.06;57.29;100945.08;2293132;77;51505;-75
2023/06/26 00:11:17;;;;;;;;;;;;;;;26.06;57.57;100935.58;2293281;77;51051;-76
2023/06/26 00:14:20;;;;;;;;;;;;;;;26.07;57.28;100937.77;2293294;75;51398;-76
2023/06/26 00:17:22;;;;;;;;;;;;;;;26.06;57.26;100934.23;2288341;76;50813;-76
2023/06/26 00:20:24;;;;;;;;;;;;;;;26.06;57.21;100934.23;2256522;79;50467;-77
2023/06/26 00:23:27;;;;;;;;;;;;;;;26.06;56.88;100942.90;2210306;78;52457;-77
2023/06/26 00:26:29;;;;;;;;;;;;;;;26.04;56.75;100940.40;2256805;79;50722;-77
2023/06/26 00:29:30;;;;;;;;;;;;;;;26.04;56.58;100936.86;2257196;79;51483;-77
2023/06/26 00:32:32;;;;;;;;;;;;;;;26.04;56.47;100936.33;2229660;77;51522;-76
2023/06/26 00:35:35;;;;;;;;;;;;;;;26.05;56.42;100933.12;2199987;80;51410;-76
2023/06/26 00:38:36;;;;;;;;;;;;;;;26.04;56.78;100938.22;2199942;80;50369;-76
2023/06/26 00:41:38;;;;;;;;;;;;;;;26.02;56.88;100931.69;2199799;80;50740;-76
2023/06/26 00:44:39;;;;;;;;;;;;;;;26.03;56.72;100935.22;2222379;80;50403;-76
2023/06/26 00:47:41;;;;;;;;;;;;;;;26.03;56.67;100936.58;2222966;75;51159;-76
2023/06/26 00:50:43;;;;;;;;;;;;;;;26.04;56.76;100926.02;2303440;75;50457;-75
2023/06/26 00:53:45;;;;;;;;;;;;;;;26.03;56.70;100923.02;2315299;75;51593;-77
2023/06/26 00:56:47;;;;;;;;;;;;;;;26.04;56.73;100930.91;2315159;77;50409;-76
2023/06/26 00:59:49;;;;;;;;;;;;;;;26.04;56.87;100919.23;2268270;75;50281;-76
2023/06/26 01:02:51;;;;;;;;;;;;;;;26.05;56.82;100922.27;2315332;76;50035;-76
2023/06/26 01:05:52;;;;;;;;;;;;;;;26.05;56.94;100914.95;2293466;77;51430;-76
2023/06/26 01:08:54;;;;;;;;;;;;;;;26.05;57.07;100920.91;2315200;77;50693;-76
2023/06/26 01:11:55;;;;;;;;;;;;;;;26.02;57.11;100911.34;2292829;77;52362;-76
2023/06/26 01:14:57;;;;;;;;;;;;;;;26.03;56.71;100908.10;2293228;77;51507;-76
2023/06/26 01:17:59;;;;;;;;;;;;;;;26.03;56.92;100908.92;2262439;77;51478;-77
2023/06/26 01:21:01;;;;;;;;;;;;;;;26.01;57.36;100904.25;2257021;77;50700;-77
2023/06/26 01:24:06;;;;;;;;;;;;;;;26.03;57.16;100907.57;2233706;79;51168;-77
2023/06/26 01:27:08;;;;;;;;;;;;;;;26.05;57.05;100903.29;2256638;78;51545;-77
2023/06/26 01:30:10;;;;;;;;;;;;;;;26.04;57.16;100903.79;2257255;77;50710;-77
2023/06/26 01:33:14;;;;;;;;;;;;;;;26.04;57.29;100901.08;2257052;79;50350;-76
2023/06/26 01:36:16;;;;;;;;;;;;;;;26.05;57.29;100901.93;2209901;79;51013;-76
2023/06/26 01:39:17;;;;;;;;;;;;;;;26.04;57.14;100895.66;2257104;78;50264;-76
2023/06/26 01:42:19;;;;;;;;;;;;;;;26.03;56.98;100894.01;2257098;78;51782;-76
2023/06/26 01:45:22;;;;;;;;;;;;;;;26.05;57.00;100889.73;2257107;77;51423;-76
2023/06/26 01:48:24;;;;;;;;;;;;;;;26.03;57.08;100892.66;2263597;76;52625;-76
2023/06/26 01:51:27;;;;;;;;;;;;;;;26.03;56.95;100891.83;2254085;79;50392;-76
2023/06/26 01:54:30;;;;;;;;;;;;;;;26.03;56.94;100880.98;2254269;79;51521;-76
2023/06/26 01:57:32;;;;;;;;;;;;;;;26.02;57.27;100882.02;2254172;77;50717;-76
2023/06/26 02:00:33;;;;;;;;;;;;;;;26.01;57.28;100885.80;2231224;79;49657;-76
2023/06/26 02:03:35;;;;;;;;;;;;;;;26.00;57.25;100883.63;2254225;77;50291;-76
2023/06/26 02:06:37;;;;;;;;;;;;;;;26.01;57.17;100878.48;2254059;77;50387;-76
2023/06/26 02:09:38;;;;;;;;;;;;;;;26.03;57.35;100880.98;2231687;79;51634;-75
2023/06/26 02:12:41;;;;;;;;;;;;;;;26.02;57.14;100877.45;2231496;79;51672;-75
2023/06/26 02:15:43;;;;;;;;;;;;;;;26.00;57.42;100880.91;2253089;79;50324;-76
2023/06/26 02:18:44;;;;;;;;;;;;;;;26.02;57.09;100882.02;2232622;79;50639;-76
2023/06/26 02:21:46;;;;;;;;;;;;;;;26.02;57.31;100879.31;2257067;79;51482;-75
2023/06/26 02:24:47;;;;;;;;;;;;;;;26.01;57.11;100881.20;2210189;79;52764;-76
2023/06/26 02:27:49;;;;;;;;;;;;;;;26.03;57.08;100878.27;2256920;77;52370;-76
2023/06/26 02:30:50;;;;;;;;;;;;;;;26.01;57.00;100878.48;2233976;79;51438;-76
2023/06/26 02:33:52;;;;;;;;;;;;;;;26.00;57.11;100874.13;2233802;79;51427;-76
2023/06/26 02:36:58;;;;;;;;;;;;;;;25.99;57.03;100875.70;2233359;79;52321;-76
2023/06/26 02:39:59;;;;;;;;;;;;;;;26.00;57.00;100876.02;2257109;79;50350;-76
2023/06/26 02:43:01;;;;;;;;;;;;;;;25.98;56.88;100871.34;2257076;78;50455;-76
2023/06/26 02:46:03;;;;;;;;;;;;;;;25.99;56.82;100871.64;2234197;77;51590;-76
2023/06/26 02:49:04;;;;;;;;;;;;;;;25.99;56.85;100874.34;2232403;79;50118;-76
2023/06/26 02:52:06;;;;;;;;;;;;;;;25.99;56.85;100870.28;2231176;79;51188;-76
2023/06/26 02:55:08;;;;;;;;;;;;;;;25.97;56.95;100862.39;2254267;79;51522;-76
2023/06/26 02:58:09;;;;;;;;;;;;;;;25.98;56.85;100867.28;2253906;78;50664;-76
2023/06/26 03:01:11;;;;;;;;;;;;;;;26.00;56.80;100862.47;2231353;79;49542;-76
2023/06/26 03:04:12;;;;;;;;;;;;;;;25.99;57.03;100857.55;2231179;79;50402;-76
2023/06/26 03:07:14;;;;;;;;;;;;;;;25.98;57.10;100861.86;2254138;79;50686;-76
2023/06/26 03:10:16;;;;;;;;;;;;;;;26.00;57.06;100857.86;2254375;79;50297;-76
2023/06/26 03:13:17;;;;;;;;;;;;;;;26.01;57.12;100855.44;2254291;79;50660;-76
2023/06/26 03:16:19;;;;;;;;;;;;;;;26.01;57.04;100853.27;2232526;78;51470;-77
2023/06/26 03:19:21;;;;;;;;;;;;;;;26.01;56.99;100854.62;2232100;79;50070;-76
2023/06/26 03:22:22;;;;;;;;;;;;;;;26.01;56.95;100846.48;2254187;79;50658;-76
2023/06/26 03:25:24;;;;;;;;;;;;;;;26.01;56.97;100843.23;2254299;79;51588;-76
2023/06/26 03:28:25;;;;;;;;;;;;;;;26.01;56.94;100843.77;2230824;78;52437;-75
2023/06/26 03:31:27;;;;;;;;;;;;;;;26.01;56.88;100846.48;2254253;79;51530;-75
2023/06/26 03:34:28;;;;;;;;;;;;;;;26.00;56.99;100847.55;2231245;79;50753;-75
2023/06/26 03:37:30;;;;;;;;;;;;;;;26.00;56.96;100840.77;2254085;78;51580;-76
2023/06/26 03:40:32;;;;;;;;;;;;;;;26.00;56.92;100840.77;2207330;77;52423;-76
2023/06/26 03:43:33;;;;;;;;;;;;;;;25.99;57.02;100843.17;2254328;79;50240;-76
2023/06/26 03:46:35;;;;;;;;;;;;;;;26.00;56.92;100835.35;2274428;77;50586;-76
2023/06/26 03:49:36;;;;;;;;;;;;;;;25.99;57.00;100828.25;2293123;77;50284;-75
2023/06/26 03:52:38;;;;;;;;;;;;;;;26.00;56.92;100836.70;2293029;77;50666;-75
2023/06/26 03:55:40;;;;;;;;;;;;;;;26.00;56.86;100834.81;2293431;77;51475;-74
2023/06/26 03:58:41;;;;;;;;;;;;;;;25.99;56.82;100829.61;2315341;76;50700;-76
2023/06/26 04:01:43;;;;;;;;;;;;;;;25.98;56.84;100832.86;2293433;77;51590;-76
2023/06/26 04:04:44;;;;;;;;;;;;;;;25.97;56.79;100837.14;2315527;75;52396;-77
2023/06/26 04:07:46;;;;;;;;;;;;;;;25.97;56.78;100831.21;2293464;77;51535;-76
2023/06/26 04:10:47;;;;;;;;;;;;;;;25.98;56.65;100837.45;2315554;77;51464;-77
2023/06/26 04:13:49;;;;;;;;;;;;;;;25.98;56.72;100834.75;2315554;77;50269;-76
2023/06/26 04:16:51;;;;;;;;;;;;;;;25.98;56.58;100832.86;2239805;78;51216;-76
2023/06/26 04:19:52;;;;;;;;;;;;;;;26.00;56.29;100832.64;2300035;77;50694;-77
2023/06/26 04:22:54;;;;;;;;;;;;;;;25.99;56.17;100832.32;2315589;76;50662;-77
2023/06/26 04:25:55;;;;;;;;;;;;;;;25.98;56.10;100823.36;2315521;77;52123;-77
2023/06/26 04:28:57;;;;;;;;;;;;;;;25.99;55.95;100830.44;2268483;77;52401;-78
2023/06/26 04:31:59;;;;;;;;;;;;;;;26.00;56.07;100829.93;2315674;76;51614;-76
2023/06/26 04:35:00;;;;;;;;;;;;;;;26.00;56.05;100821.27;2293655;77;51496;-78
2023/06/26 04:38:03;;;;;;;;;;;;;;;26.00;55.94;100823.97;2315462;77;51454;-76
2023/06/26 04:41:04;;;;;;;;;;;;;;;25.99;55.95;100816.05;2268699;77;51763;-72
2023/06/26 04:44:06;;;;;;;;;;;;;;;25.97;55.90;100822.22;2258625;77;51243;-73
2023/06/26 04:47:08;;;;;;;;;;;;;;;25.97;55.76;100813.59;2272102;77;50435;-74
2023/06/26 04:50:10;;;;;;;;;;;;;;;25.95;55.92;100824.36;2265253;76;50441;-73
2023/06/26 04:53:11;;;;;;;;;;;;;;;25.93;56.07;100821.05;2197741;79;51016;-74
2023/06/26 04:56:13;;;;;;;;;;;;;;;25.96;55.78;100818.69;2222223;79;50617;-75
2023/06/26 04:59:14;;;;;;;;;;;;;;;25.99;55.57;100816.05;2222267;79;50286;-75
2023/06/26 05:02:16;;;;;;;;;;;;;;;26.01;55.44;100818.02;2222225;79;50151;-74
2023/06/26 05:05:18;;;;;;;;;;;;;;;26.00;55.38;100810.95;2175777;79;51393;-73
2023/06/26 05:08:21;;;;;;;;;;;;;;;26.03;55.15;100812.66;2222037;79;50337;-75
2023/06/26 05:11:23;;;;;;;;;;;;;;;26.04;55.07;100814.30;2221323;78;50502;-73
2023/06/26 05:14:24;;;;;;;;;;;;;;;26.05;54.98;100813.27;2222190;80;51441;-73
2023/06/26 05:17:26;;;;;;;;;;;;;;;26.02;54.97;100816.94;2226020;78;50387;-74
2023/06/26 05:20:27;;;;;;;;;;;;;;;26.03;55.00;100810.48;2250395;77;50390;-74
2023/06/26 05:23:32;;;;;;;;;;;;;;;26.04;55.26;100816.19;2199865;80;50657;-73
2023/06/26 05:26:34;;;;;;;;;;;;;;;26.04;54.97;100814.84;2199824;80;50801;-73
2023/06/26 05:29:36;;;;;;;;;;;;;;;26.05;54.82;100813.27;2200421;80;52503;-76
2023/06/26 05:32:38;;;;;;;;;;;;;;;26.06;54.74;100811.38;2199696;79;50699;-75
2023/06/26 05:35:40;;;;;;;;;;;;;;;26.06;54.69;100802.70;2222418;80;51482;-76
2023/06/26 05:38:42;;;;;;;;;;;;;;;26.09;54.62;100798.70;2227692;77;51609;-75
2023/06/26 05:41:45;;;;;;;;;;;;;;;26.06;54.60;100800.53;2248591;77;52575;-76
2023/06/26 05:44:47;;;;;;;;;;;;;;;26.05;54.61;100794.81;2306632;76;50222;-76
2023/06/26 05:47:50;;;;;;;;;;;;;;;26.04;54.56;100787.19;2257989;77;51569;-76
2023/06/26 05:50:51;;;;;;;;;;;;;;;26.05;54.58;100778.02;2257033;77;52343;-76
2023/06/26 05:53:53;;;;;;;;;;;;;;;26.22;54.19;100784.95;2209373;79;51621;-76
2023/06/26 05:56:56;;;;;;;;;;;;;;;26.28;54.16;100779.98;2256842;79;50408;-76
2023/06/26 05:59:58;;;;;;;;;;;;;;;26.33;54.08;100779.80;2257000;77;52414;-77
2023/06/26 06:02:59;;;;;;;;;;;;;;;26.40;53.83;100777.28;2233400;79;50640;-76
2023/06/26 06:06:01;;;;;;;;;;;;;;;26.47;53.62;100782.62;2209909;78;52571;-75
2023/06/26 06:09:03;;;;;;;;;;;;;;;26.53;53.48;100780.88;2233551;79;51582;-75
2023/06/26 06:12:05;;;;;;;;;;;;;;;26.57;53.26;100765.80;2233556;78;50647;-76
2023/06/26 06:15:07;;;;;;;;;;;;;;;26.60;53.18;100763.44;2256975;77;52172;-76
2023/06/26 06:18:09;;;;;;;;;;;;;;;26.66;52.99;100767.09;2209420;79;51860;-75
2023/06/26 06:21:10;;;;;;;;;;;;;;;26.71;52.74;100769.94;2256645;79;51360;-75
2023/06/26 06:24:12;;;;;;;;;;;;;;;26.77;52.54;100765.45;2232939;78;51606;-75
2023/06/26 06:27:14;;;;;;;;;;;;;;;26.81;52.27;100763.93;2256418;78;51439;-75
2023/06/26 06:30:16;;;;;;;;;;;;;;;26.83;52.11;100762.63;2209963;79;51252;-76
2023/06/26 06:33:17;;;;;;;;;;;;;;;26.87;51.92;100757.55;2233495;79;51471;-76
2023/06/26 06:36:19;;;;;;;;;;;;;;;26.91;51.69;100756.02;2257124;77;51479;-75
2023/06/26 06:39:20;;;;;;;;;;;;;;;26.93;51.49;100759.34;2257033;77;51501;-76
2023/06/26 06:42:22;;;;;;;;;;;;;;;26.97;51.39;100760.50;2209863;79;51628;-76
2023/06/26 06:45:24;;;;;;;;;;;;;;;27.00;50.62;100753.27;2256983;78;51443;-75
2023/06/26 06:48:25;;;;;;;;;;;;;;;26.99;50.78;100752.95;2262268;77;51478;-77
2023/06/26 06:51:27;;;;;;;;;;;;;;;27.03;50.76;100748.70;2315127;75;49972;-76
2023/06/26 06:54:28;;;;;;;;;;;;;;;27.06;50.67;100751.48;2268046;77;51252;-75
2023/06/26 06:57:30;;;;;;;;;;;;;;;27.08;50.63;100752.89;2315032;75;50652;-75
2023/06/26 07:00:32;;;;;;;;;;;;;;;27.11;50.52;100758.38;2313382;75;50744;-76
2023/06/26 07:03:33;;;;;;;;;;;;;;;27.12;50.38;100743.73;2293458;77;51412;-75
2023/06/26 07:06:35;;;;;;;;;;;;;;;27.13;50.32;100746.75;2268204;76;51649;-75
2023/06/26 07:09:37;;;;;;;;;;;;;;;27.14;50.08;100745.67;2269283;77;50918;-75
2023/06/26 07:12:38;;;;;;;;;;;;;;;27.17;50.22;100745.73;2316683;75;50648;-76
2023/06/26 07:15:40;;;;;;;;;;;;;;;27.17;50.08;100748.45;2270213;77;49936;-74
2023/06/26 07:18:43;;;;;;;;;;;;;;;27.15;50.11;100744.09;2212484;78;52422;-75
2023/06/26 07:21:46;;;;;;;;;;;;;;;27.18;49.99;100737.89;2258781;78;50722;-75
2023/06/26 07:24:50;;;;;;;;;;;;;;;27.18;49.86;100736.03;2257327;77;50765;-75
2023/06/26 07:27:53;;;;;;;;;;;;;;;27.20;49.79;100743.39;2243862;78;50691;-75
2023/06/26 07:30:55;;;;;;;;;;;;;;;27.22;49.57;100740.45;2229427;78;52593;-75
2023/06/26 07:34:01;;;;;;;;;;;;;;;27.22;49.57;100740.45;2243033;78;52365;-75
2023/06/26 07:37:00;;;;;;;;;;;;;;;27.23;49.47;100742.94;2253616;77;22429;-74
2023/06/26 07:40:03;;;;;;;;;;;;;;;27.24;49.36;100729.63;2254781;77;50750;-74
2023/06/26 07:43:06;;;;;;;;;;;;;;;27.25;49.36;100723.12;2231930;79;50878;-75
2023/06/26 07:46:08;;;;;;;;;;;;;;;27.26;49.44;100726.15;2254863;77;50762;-74
2023/06/26 07:49:10;;;;;;;;;;;;;;;27.26;49.33;100717.18;2231531;79;51933;-75
2023/06/26 07:52:14;;;;;;;;;;;;;;;27.27;49.22;100722.89;2233463;78;50073;-76
2023/06/26 07:55:16;;;;;;;;;;;;;;;27.27;49.01;100719.64;2230783;79;23793;-74
2023/06/26 07:58:20;;;;;;;;;;;;;;;27.28;48.83;100706.88;2234463;79;50564;-75
2023/06/26 08:01:24;;;;;;;;;;;;;;;27.26;49.03;100710.39;2260413;77;22267;-73
2023/06/26 08:04:26;;;;;;;;;;;;;;;27.26;48.95;100703.59;2298029;76;50797;-74
2023/06/26 08:07:28;;;;;;;;;;;;;;;27.25;49.22;100700.56;2276563;77;51870;-74
2023/06/26 08:10:35;;;;;;;;;;;;;;;27.25;49.17;100703.28;2298110;76;50821;-76
2023/06/26 08:13:39;;;;;;;;;;;;;;;27.24;49.19;100701.11;2278367;76;22026;-77
2023/06/26 08:16:44;;;;;;;;;;;;;;;27.23;49.01;100705.41;2277429;77;50409;-75
2023/06/26 08:19:46;;;;;;;;;;;;;;;27.22;48.71;100697.80;2270006;76;21917;-76
2023/06/26 08:22:51;;;;;;;;;;;;;;;27.23;48.75;100699.98;2232731;78;50342;-76
2023/06/26 08:25:52;;;;;;;;;;;;;;;27.21;48.66;100693.98;2233210;78;22215;-75
2023/06/26 08:28:54;;;;;;;;;;;;;;;27.22;48.49;100698.34;2257785;77;50640;-76
2023/06/26 08:31:56;;;;;;;;;;;;;;;27.24;48.22;100691.59;2235324;77;50744;-75
2023/06/26 08:34:57;;;;;;;;;;;;;;;27.21;48.42;100690.73;2236406;78;51552;-74
2023/06/26 08:38:02;;;;;;;;;;;;;;;27.22;48.22;100691.55;2235904;77;50802;-75
2023/06/26 08:41:07;;;;;;;;;;;;;;;27.22;48.34;100691.55;2258922;77;51479;-75
2023/06/26 08:44:08;;;;;;;;;;;;;;;27.21;48.16;100683.94;2258795;77;22867;-75
2023/06/26 08:47:10;;;;;;;;;;;;;;;27.19;48.17;100674.37;2258570;78;50324;-76
2023/06/26 08:50:12;;;;;;;;;;;;;;;27.20;48.10;100684.16;2258420;78;51628;-75
2023/06/26 08:53:14;;;;;;;;;;;;;;;27.19;47.89;100679.80;2235449;77;51373;-74
2023/06/26 08:56:17;;;;;;;;;;;;;;;27.16;48.07;100674.29;2258380;78;50480;-74
2023/06/26 08:59:19;;;;;;;;;;;;;;;27.18;47.94;100674.06;2258535;77;52476;-74
2023/06/26 09:02:24;;;;;;;;;;;;;;;27.17;47.54;100675.92;2275702;77;51310;-74
2023/06/26 09:05:27;;;;;;;;;;;;;;;27.18;47.34;100669.98;2262247;77;50209;-74
2023/06/26 09:08:29;;;;;;;;;;;;;;;27.18;47.58;100661.84;2209522;79;50172;-73
2023/06/26 09:11:30;;;;;;;;;;;;;;;27.17;47.90;100658.27;2256300;77;50289;-73
2023/06/26 09:14:32;;;;;;;;;;;;;;;27.18;48.09;100656.41;2256632;78;50430;-74
2023/06/26 09:17:34;;;;;;;;;;;;;;;27.20;48.21;100654.28;2262922;76;51483;-74
2023/06/26 09:20:36;;;;;;;;;;;;;;;27.19;48.56;100643.14;2250227;77;51152;-73
2023/06/26 09:23:37;;;;;;;;;;;;;;;27.21;48.56;100650.52;2308223;76;50645;-72
2023/06/26 09:26:39;;;;;;;;;;;;;;;27.21;48.60;100649.16;2274566;77;50467;-75
2023/06/26 09:29:41;;;;;;;;;;;;;;;27.19;48.63;100645.31;2308129;77;51462;-74
2023/06/26 09:32:42;;;;;;;;;;;;;;;27.18;48.85;100646.39;2237213;77;52698;-74
2023/06/26 09:35:44;;;;;;;;;;;;;;;27.18;49.16;100645.03;2252977;78;50642;-74
2023/06/26 09:38:46;;;;;;;;;;;;;;;27.17;49.22;100646.05;2253064;78;50033;-74
2023/06/26 09:41:47;;;;;;;;;;;;;;;27.15;49.23;100640.87;2274401;78;50412;-74
2023/06/26 09:44:49;;;;;;;;;;;;;;;27.18;49.39;100640.11;2228738;78;51605;-73
2023/06/26 09:47:50;;;;;;;;;;;;;;;27.19;49.43;100634.45;2274301;78;50644;-73
2023/06/26 09:50:52;;;;;;;;;;;;;;;27.20;49.47;100633.91;2274208;77;51343;-73
2023/06/26 09:53:54;;;;;;;;;;;;;;;27.19;49.55;100622.22;2252555;78;52247;-74
2023/06/26 09:56:56;;;;;;;;;;;;;;;27.20;49.60;100625.75;2228630;78;52386;-74
2023/06/26 09:59:58;;;;;;;;;;;;;;;27.20;49.74;100617.61;2252791;78;51393;-73
2023/06/26 10:03:00;;;;;;;;;;;;;;;27.22;49.86;100619.55;2274350;77;50147;-73
2023/06/26 10:06:02;;;;;;;;;;;;;;;27.23;49.96;100623.91;2274258;77;51530;-74
2023/06/26 10:09:04;;;;;;;;;;;;;;;27.21;49.92;100617.38;2252745;78;51391;-74
2023/06/26 10:12:08;;;;;;;;;;;;;;;27.21;49.96;100612.48;2273879;78;51591;-73
2023/06/26 10:15:12;;;;;;;;;;;;;;;27.23;49.92;100608.97;2273369;77;50749;-74
2023/06/26 10:18:13;;;;;;;;;;;;;;;27.22;49.94;100605.97;2274591;78;22496;-74
2023/06/26 10:21:14;;;;;;;;;;;;;;;27.23;50.04;100604.38;2253036;78;51685;-74
2023/06/26 10:24:16;;;;;;;;;;;;;;;27.22;49.97;100600.54;2274524;78;51512;-75
2023/06/26 10:27:19;;;;;;;;;;;;;;;27.20;50.08;100598.59;2274597;78;50645;-76
2023/06/26 10:30:25;;;;;;;;;;;;;;;27.19;50.14;100590.16;2273200;77;51523;-75
2023/06/26 10:33:27;;;;;;;;;;;;;;;27.18;49.77;100582.55;2252716;78;51230;-75
2023/06/26 10:36:30;;;;;;;;;;;;;;;27.18;49.51;100579.84;2274458;78;50324;-74
2023/06/26 10:39:49;;;;;;;;;;;;;;;27.18;49.20;100578.98;2274825;77;51545;-74
2023/06/26 10:42:51;;;;;;;;;;;;;;;27.15;49.36;100580.27;2274529;78;51527;-75
2023/06/26 10:45:54;;;;;;;;;;;;;;;27.15;49.57;100580.27;2253405;78;52302;-73
2023/06/26 10:49:03;;;;;;;;;;;;;;;27.16;49.56;100575.14;2253759;78;50519;-74
2023/06/26 10:52:02;;;;;;;;;;;;;;;27.16;49.65;100564.28;2272796;78;22393;-74
2023/06/26 10:55:04;;;;;;;;;;;;;;;27.17;49.71;100560.48;2274689;78;50743;-73
2023/06/26 10:58:05;;;;;;;;;;;;;;;27.19;49.71;100554.85;2228610;78;52255;-73
2023/06/26 11:01:15;;;;;;;;;;;;;;;27.18;49.76;100554.55;2253373;78;52453;-75
2023/06/26 11:04:16;;;;;;;;;;;;;;;27.19;49.82;100557.03;2274310;77;50499;-74
2023/06/26 11:07:22;;;;;;;;;;;;;;;27.19;49.86;100559.74;2274453;77;51457;-74
2023/06/26 11:10:23;;;;;;;;;;;;;;;27.19;49.81;100554.85;2252767;78;51095;-72
2023/06/26 11:13:26;;;;;;;;;;;;;;;27.20;49.82;100549.70;2252633;78;50105;-73
2023/06/26 11:16:27;;;;;;;;;;;;;;;27.19;49.86;100550.23;2274112;77;51535;-73
2023/06/26 11:19:29;;;;;;;;;;;;;;;27.21;49.90;100550.01;2253026;78;51514;-75
2023/06/26 11:22:31;;;;;;;;;;;;;;;27.19;50.01;100548.87;2253196;78;52189;-75
2023/06/26 11:25:35;;;;;;;;;;;;;;;27.18;49.80;100536.38;2274388;78;51591;-74
2023/06/26 11:28:36;;;;;;;;;;;;;;;27.18;49.51;100533.66;2273700;77;50398;-77
2023/06/26 11:31:38;;;;;;;;;;;;;;;27.19;49.50;100531.22;2273994;77;50272;-76
2023/06/26 11:34:42;;;;;;;;;;;;;;;27.20;49.24;100526.61;2200119;80;52444;-76
2023/06/26 11:37:43;;;;;;;;;;;;;;;27.21;49.04;100516.87;2222211;79;22332;-76
2023/06/26 11:40:45;;;;;;;;;;;;;;;27.21;48.80;100518.77;2251744;78;50294;-76
2023/06/26 11:43:46;;;;;;;;;;;;;;;27.19;48.56;100508.13;2253342;79;50797;-77
2023/06/26 11:46:48;;;;;;;;;;;;;;;27.21;48.55;100516.05;2231044;79;52421;-76
2023/06/26 11:49:50;;;;;;;;;;;;;;;27.18;47.53;100502.93;2230609;79;50439;-75
2023/06/26 11:52:58;;;;;;;;;;;;;;;27.18;47.94;100494.78;2253554;78;50235;-75
2023/06/26 11:56:00;;;;;;;;;;;;;;;27.18;47.77;100494.27;2252173;78;51516;-75
2023/06/26 11:59:02;;;;;;;;;;;;;;;27.18;47.08;100487.48;2205451;79;51690;-75
2023/06/26 12:02:10;;;;;;;;;;;;;;;27.11;47.57;100482.16;2253977;77;51650;-75
2023/06/26 12:05:12;;;;;;;;;;;;;;;27.13;47.28;100469.16;2231134;79;50120;-75
2023/06/26 12:08:14;;;;;;;;;;;;;;;27.14;47.24;100470.80;2253828;77;50816;-76
2023/06/26 12:11:16;;;;;;;;;;;;;;;27.13;46.31;100469.16;2254274;79;50204;-76
2023/06/26 12:14:18;;;;;;;;;;;;;;;27.12;46.34;100453.92;2254047;78;50296;-76
2023/06/26 12:17:21;;;;;;;;;;;;;;;27.13;45.72;100459.66;2253933;77;51605;-75
2023/06/26 12:20:23;;;;;;;;;;;;;;;27.14;44.94;100455.05;2254131;79;52123;-76
2023/06/26 12:23:24;;;;;;;;;;;;;;;27.14;44.85;100442.28;2230905;78;50139;-75
2023/06/26 12:26:26;;;;;;;;;;;;;;;27.17;44.66;100438.79;2230747;79;51434;-75
2023/06/26 12:29:34;;;;;;;;;;;;;;;27.12;44.93;100440.34;2231049;77;51489;-75
2023/06/26 12:32:35;;;;;;;;;;;;;;;27.11;44.57;100440.60;2254224;79;51440;-75
2023/06/26 12:35:37;;;;;;;;;;;;;;;27.09;44.85;100441.38;2231294;79;51253;-76
2023/06/26 12:38:39;;;;;;;;;;;;;;;27.09;44.61;100420.47;2253993;77;50275;-76
2023/06/26 12:41:50;;;;;;;;;;;;;;;27.12;44.67;100428.11;2254230;77;52741;-76
2023/06/26 12:44:51;;;;;;;;;;;;;;;27.13;44.69;100423.53;2254242;79;50442;-76
2023/06/26 12:47:53;;;;;;;;;;;;;;;27.10;43.99;100424.84;2207067;77;51146;-76
2023/06/26 12:50:55;;;;;;;;;;;;;;;27.14;43.77;100416.48;2254161;78;51662;-76
2023/06/26 12:53:56;;;;;;;;;;;;;;;27.17;44.19;100404.84;2254089;77;51569;-75
2023/06/26 12:56:58;;;;;;;;;;;;;;;27.17;44.06;100405.66;2253936;79;51442;-76
2023/06/26 13:00:00;;;;;;;;;;;;;;;27.20;44.02;100409.80;2231246;79;51536;-75
2023/06/26 13:03:01;;;;;;;;;;;;;;;27.19;43.89;100409.53;2231275;79;50278;-75
2023/06/26 13:06:03;;;;;;;;;;;;;;;27.19;44.21;100401.38;2231538;79;50702;-75
2023/06/26 13:09:05;;;;;;;;;;;;;;;27.19;44.54;100394.59;2231159;79;50292;-76
2023/06/26 13:12:06;;;;;;;;;;;;;;;27.19;44.46;100393.23;2207279;79;51200;-75
2023/06/26 13:15:09;;;;;;;;;;;;;;;27.18;44.36;100386.98;2225971;77;52713;-76
2023/06/26 13:18:10;;;;;;;;;;;;;;;27.15;44.39;100375.20;2253310;78;51504;-77
2023/06/26 13:21:12;;;;;;;;;;;;;;;27.15;44.42;100371.12;2253298;78;51415;-75
2023/06/26 13:24:14;;;;;;;;;;;;;;;27.14;44.35;100360.80;2235135;78;51577;-75
2023/06/26 13:27:16;;;;;;;;;;;;;;;27.13;44.37;100361.88;2257201;77;50584;-75
2023/06/26 13:30:17;;;;;;;;;;;;;;;27.13;44.44;100354.27;2235076;78;50383;-76
2023/06/26 13:33:19;;;;;;;;;;;;;;;27.12;44.52;100343.92;2235780;78;50653;-75
2023/06/26 13:36:21;;;;;;;;;;;;;;;27.11;45.23;100340.92;2216690;77;50984;-76
2023/06/26 13:39:23;;;;;;;;;;;;;;;27.12;45.82;100333.05;2247672;77;50835;-76
2023/06/26 13:42:24;;;;;;;;;;;;;;;27.10;45.32;100316.21;2266802;76;51356;-77
2023/06/26 13:45:26;;;;;;;;;;;;;;;27.09;45.80;100309.11;2256373;78;51545;-75
2023/06/26 13:48:27;;;;;;;;;;;;;;;27.11;45.13;100302.09;2208701;78;52278;-76
2023/06/26 13:51:29;;;;;;;;;;;;;;;27.09;45.54;100287.93;2227667;78;50785;-75
2023/06/26 13:54:30;;;;;;;;;;;;;;;27.11;45.65;100286.61;2254608;77;49763;-75
2023/06/26 13:57:32;;;;;;;;;;;;;;;27.10;45.27;100277.34;2234766;79;49999;-75
2023/06/26 14:00:34;;;;;;;;;;;;;;;27.12;45.48;100268.41;2236499;78;50746;-74
2023/06/26 14:03:36;;;;;;;;;;;;;;;27.12;46.14;100249.41;2260251;77;51341;-75
2023/06/26 14:06:38;;;;;;;;;;;;;;;27.13;45.60;100254.59;2260989;77;51452;-73
2023/06/26 14:09:39;;;;;;;;;;;;;;;27.15;46.45;100253.81;2233523;76;50835;-75
2023/06/26 14:12:41;;;;;;;;;;;;;;;27.14;46.13;100237.22;2223784;78;50297;-74
2023/06/26 14:15:44;;;;;;;;;;;;;;;27.34;43.14;100227.75;2261665;76;50425;-74
2023/06/26 14:18:46;;;;;;;;;;;;;;;27.49;42.44;100249.68;2293305;77;50572;-73
2023/06/26 14:21:47;;;;;;;;;;;;;;;27.54;42.31;100287.80;2232757;79;51288;-75
2023/06/26 14:24:49;;;;;;;;;;;;;;;27.53;41.91;100329.61;2200777;79;51681;-74
2023/06/26 14:27:51;;;;;;;;;;;;;;;27.50;42.64;100403.50;2258448;79;50791;-76
2023/06/26 14:30:52;;;;;;;;;;;;;;;27.26;45.74;100412.38;2235259;79;51603;-75
2023/06/26 14:33:54;;;;;;;;;;;;;;;27.08;46.55;100433.77;2233504;77;50440;-73
2023/06/26 14:36:55;;;;;;;;;;;;;;;27.07;47.13;100459.27;2207132;78;52648;-74
2023/06/26 14:39:58;;;;;;;;;;;;;;;27.11;47.80;100486.77;2232712;79;51475;-73
2023/06/26 14:43:00;;;;;;;;;;;;;;;27.10;48.73;100515.83;2256974;78;51565;-73
2023/06/26 14:46:01;;;;;;;;;;;;;;;27.10;49.22;100528.56;2231637;78;51455;-74
2023/06/26 14:49:03;;;;;;;;;;;;;;;27.09;49.30;100545.40;2245089;76;50346;-73
2023/06/26 14:52:05;;;;;;;;;;;;;;;27.10;49.31;100548.93;2315247;75;50253;-73
2023/06/26 14:55:06;;;;;;;;;;;;;;;27.08;49.88;100572.28;2257409;77;50045;-74
2023/06/26 14:58:08;;;;;;;;;;;;;;;27.07;49.80;100564.36;2230972;79;53897;-73
2023/06/26 15:01:10;;;;;;;;;;;;;;;27.06;49.73;100556.75;2207649;77;52431;-75
2023/06/26 15:04:11;;;;;;;;;;;;;;;27.06;49.93;100530.95;2268021;77;50308;-75
2023/06/26 15:07:13;;;;;;;;;;;;;;;27.02;51.96;100512.13;2291850;77;50091;-75
2023/06/26 15:10:15;;;;;;;;;;;;;;;26.94;52.65;100492.16;2256640;77;50660;-74
2023/06/26 15:13:17;;;;;;;;;;;;;;;26.84;53.36;100503.64;2210333;78;51071;-76
2023/06/26 15:16:19;;;;;;;;;;;;;;;26.82;53.90;100526.66;2233657;78;51460;-76
2023/06/26 15:19:20;;;;;;;;;;;;;;;26.79;53.72;100538.01;2248661;77;51443;-76
2023/06/26 15:22:23;;;;;;;;;;;;;;;26.72;54.82;100525.95;2293978;76;50424;-76
2023/06/26 15:25:24;;;;;;;;;;;;;;;26.68;55.42;100538.34;2256943;78;51868;-77
2023/06/26 15:28:26;;;;;;;;;;;;;;;26.63;55.30;100550.45;2256696;78;50319;-75
2023/06/26 15:31:29;;;;;;;;;;;;;;;26.59;55.18;100540.61;2256858;77;50282;-76
2023/06/26 15:34:31;;;;;;;;;;;;;;;26.66;55.32;100547.25;2233573;77;50811;-76